TimeEDT,TemperatureF,Dew PointF,Humidity,Sea Level PressureIn,VisibilityMPH,Wind Direction,Wind SpeedMPH,Gust SpeedMPH,PrecipitationIn,Events,Conditions,WindDirDegrees,DateUTC
12:53 AM,44.1,19.0,37,30.01,10.0,East,24.2,41.4,N/A,,Clear,90,2014-04-29 04:53:00
1:53 AM,42.1,19.9,41,30.01,10.0,East,20.7,35.7,N/A,,Clear,90,2014-04-29 05:53:00
2:53 AM,41.0,21.9,47,29.98,10.0,East,20.7,34.5,N/A,,Clear,80,2014-04-29 06:53:00
3:53 AM,39.9,21.9,49,29.95,10.0,East,20.7,39.1,N/A,,Clear,80,2014-04-29 07:53:00
4:53 AM,39.0,23.0,53,29.95,10.0,East,19.6,32.2,N/A,,Clear,80,2014-04-29 08:53:00
5:53 AM,39.0,24.1,55,29.92,10.0,East,18.4,33.4,N/A,,Scattered Clouds,80,2014-04-29 09:53:00
6:53 AM,39.0,25.0,57,29.91,10.0,East,25.3,39.1,N/A,,Partly Cloudy,80,2014-04-29 10:53:00
7:53 AM,37.9,26.1,62,29.88,10.0,ENE,18.4,28.8,N/A,,Mostly Cloudy,70,2014-04-29 11:53:00
8:53 AM,39.2,26.6,61,29.84,10.0,ENE,19.6,29.9,N/A,,Mostly Cloudy,70,2014-04-29 12:53:00
9:53 AM,39.9,27.0,60,29.86,10.0,ENE,17.3,35.7,N/A,,Mostly Cloudy,70,2014-04-29 13:53:00
10:53 AM,39.2,26.6,61,29.81,10.0,East,16.1,25.3,N/A,,Overcast,80,2014-04-29 14:53:00
11:53 AM,39.0,28.0,65,29.84,10.0,ENE,19.6,28.8,N/A,,Overcast,70,2014-04-29 15:53:00
12:14 PM,37.4,28.4,70,29.81,10.0,ENE,17.3,28.8,0.00,Rain,Light Rain,70,2014-04-29 16:14:00
12:53 PM,36.0,30.9,82,29.81,5.0,ENE,17.3,31.1,0.00,Snow,Light Snow,70,2014-04-29 16:53:00
1:17 PM,35.6,30.2,81,29.78,2.5,ENE,17.3,32.2,N/A,Snow,Light Snow,60,2014-04-29 17:17:00
1:23 PM,35.6,30.2,81,29.77,1.8,ENE,17.3,26.5,N/A,Snow,Light Snow,60,2014-04-29 17:23:00
1:33 PM,35.6,30.2,81,29.77,2.0,ENE,18.4,26.5,N/A,Snow,Light Snow,70,2014-04-29 17:33:00
1:46 PM,35.6,30.2,81,29.76,1.5,ENE,18.4,25.3,N/A,Snow,Light Snow,70,2014-04-29 17:46:00
1:53 PM,35.1,30.9,85,29.79,1.2,ENE,19.6,26.5,N/A,Snow,Light Snow,60,2014-04-29 17:53:00
2:03 PM,35.6,30.2,81,29.77,3.0,ENE,19.6,31.1,0.00,Snow,Light Snow,70,2014-04-29 18:03:00
2:11 PM,35.6,30.2,81,29.76,1.8,ENE,18.4,32.2,0.01,Snow,Light Snow,60,2014-04-29 18:11:00
2:34 PM,35.6,30.2,81,29.75,3.0,NE,18.4,29.9,0.03,Snow,Light Snow,50,2014-04-29 18:34:00
2:53 PM,35.1,32.0,89,29.79,4.0,ENE,16.1,26.5,0.04,Rain,Light Rain,60,2014-04-29 18:53:00
3:53 PM,37.0,33.1,86,29.80,6.0,ENE,17.3,36.8,0.05,Rain,Light Rain,70,2014-04-29 19:53:00
4:44 PM,35.6,32.0,87,29.77,2.5,ENE,17.3,28.8,0.05,Rain,Rain,60,2014-04-29 20:44:00
4:53 PM,36.0,32.0,86,29.79,3.0,ENE,16.1,27.6,0.06,Rain,Light Rain,60,2014-04-29 20:53:00
5:14 PM,35.6,32.0,87,29.76,2.5,ENE,16.1,28.8,0.03,Rain,Light Rain,60,2014-04-29 21:14:00
5:53 PM,36.0,33.1,89,29.79,2.0,ENE,13.8,25.3,0.06,Rain,Light Rain,60,2014-04-29 21:53:00
6:15 PM,35.6,33.8,93,29.76,3.0,ENE,12.7,25.3,0.01,Rain,Light Rain,60,2014-04-29 22:15:00
6:23 PM,35.6,33.8,93,29.76,1.8,ENE,17.3,25.3,0.01,Rain,Light Rain,70,2014-04-29 22:23:00
6:53 PM,37.0,34.0,89,29.80,1.5,East,20.7,28.8,0.02,,Overcast,80,2014-04-29 22:53:00
7:32 PM,37.4,35.6,93,29.76,1.2,ENE,15.0,24.2,0.00,,Overcast,70,2014-04-29 23:32:00
7:53 PM,37.9,36.0,93,29.79,1.2,ENE,15.0,25.3,0.00,,Overcast,70,2014-04-29 23:53:00
8:20 PM,37.4,35.6,93,29.77,2.0,ENE,18.4,27.6,N/A,,Overcast,70,2014-04-30 00:20:00
8:48 PM,37.4,35.6,93,29.77,1.8,East,19.6,33.4,N/A,,Overcast,80,2014-04-30 00:48:00
8:53 PM,37.9,36.0,93,29.80,1.8,East,16.1,33.4,N/A,,Overcast,80,2014-04-30 00:53:00
9:13 PM,37.4,35.6,93,29.76,0.5,East,18.4,26.5,N/A,Fog,Fog,80,2014-04-30 01:13:00
9:28 PM,37.4,35.6,93,29.76,0.2,East,12.7,23.0,N/A,Fog,Fog,80,2014-04-30 01:28:00
9:49 PM,37.4,35.6,93,29.76,0.2,East,12.7,-,N/A,Fog,Fog,90,2014-04-30 01:49:00
9:53 PM,37.0,35.1,93,29.79,0.2,East,10.4,-,N/A,Fog,Fog,90,2014-04-30 01:53:00
10:53 PM,36.0,34.0,93,29.78,0.2,East,10.4,-,N/A,Fog,Fog,90,2014-04-30 02:53:00
11:53 PM,35.1,34.0,96,29.76,0.2,East,6.9,-,N/A,Fog,Fog,90,2014-04-30 03:53:00